createdAt,value
2019-04-01T00:02:42.644Z,3.10
2019-04-01T00:05:31.808Z,3.10
2019-04-01T00:08:20.786Z,3.00
2019-04-01T00:11:10.275Z,3.00
2019-04-01T00:13:59.567Z,3.00
2019-04-01T00:16:49.130Z,3.00
2019-04-01T00:19:38.493Z,2.90
2019-04-01T00:22:28.171Z,2.90
2019-04-01T00:25:17.328Z,2.90
2019-04-01T00:28:06.570Z,2.80
2019-04-01T00:30:55.224Z,2.80
2019-04-01T00:33:44.533Z,2.80
2019-04-01T00:36:34.108Z,2.80
2019-04-01T00:39:23.345Z,2.70
2019-04-01T00:42:23.678Z,2.70
2019-04-01T00:45:14.229Z,2.70
2019-04-01T00:48:03.586Z,2.70
2019-04-01T00:50:52.852Z,2.70
2019-04-01T00:53:41.735Z,2.60
2019-04-01T00:56:31.235Z,2.60
2019-04-01T00:59:21.273Z,2.60
2019-04-01T01:02:10.012Z,2.60
2019-04-01T01:04:59.572Z,2.60
2019-04-01T01:25:08.684Z,2.40
2019-04-01T01:27:58.134Z,2.40
2019-04-01T01:30:47.195Z,2.30
2019-04-01T01:33:36.318Z,2.20
2019-04-01T01:36:24.917Z,2.20
2019-04-01T01:39:14.287Z,2.20
2019-04-01T01:42:03.660Z,2.10
2019-04-01T01:44:52.702Z,2.10
2019-04-01T01:47:41.893Z,2.10
2019-04-01T01:50:31.158Z,2.00
2019-04-01T01:53:19.891Z,2.00
2019-04-01T01:56:09.079Z,2.10
2019-04-01T01:58:58.759Z,2.00
2019-04-01T02:01:47.648Z,1.90
2019-04-01T02:04:36.993Z,1.80
2019-04-01T02:07:26.158Z,1.80
2019-04-01T02:10:14.989Z,1.70
2019-04-01T02:13:04.192Z,1.70
2019-04-01T02:15:52.968Z,1.70
2019-04-01T02:18:41.811Z,1.70
2019-04-01T02:21:30.614Z,1.80
2019-04-01T02:24:19.528Z,1.70
2019-04-01T02:27:09.053Z,1.60
2019-04-01T02:29:58.583Z,1.60
2019-04-01T02:32:47.917Z,1.60
2019-04-01T02:35:37.626Z,1.50
2019-04-01T02:38:26.573Z,1.50
2019-04-01T02:41:15.963Z,1.40
2019-04-01T02:44:05.303Z,1.50
2019-04-01T02:46:54.800Z,1.50
2019-04-01T02:49:43.802Z,1.40
2019-04-01T02:52:32.548Z,1.60
2019-04-01T02:55:21.805Z,1.50
2019-04-01T02:58:10.626Z,1.60
2019-04-01T03:00:59.918Z,1.60
2019-04-01T03:03:48.985Z,1.60
2019-04-01T03:06:38.660Z,1.60
2019-04-01T03:09:28.191Z,1.60
2019-04-01T03:12:17.422Z,1.70
2019-04-01T03:15:07.423Z,1.60
2019-04-01T03:17:56.276Z,1.60
2019-04-01T03:20:45.405Z,1.60
2019-04-01T03:23:34.188Z,1.50
2019-04-01T03:26:22.977Z,1.40
2019-04-01T03:29:12.213Z,1.40
2019-04-01T03:32:01.385Z,1.40
2019-04-01T03:34:50.099Z,1.30
2019-04-01T03:37:39.649Z,1.40
2019-04-01T03:40:28.446Z,1.40
2019-04-01T03:43:17.948Z,1.50
2019-04-01T03:46:06.761Z,1.50
2019-04-01T03:48:56.465Z,1.60
2019-04-01T03:51:45.260Z,1.50
2019-04-01T03:54:34.631Z,1.50
2019-04-01T03:57:23.535Z,1.40
2019-04-01T04:00:13.876Z,1.40
2019-04-01T04:03:03.187Z,1.50
2019-04-01T04:05:52.212Z,1.40
2019-04-01T04:08:41.761Z,1.40
2019-04-01T04:11:31.457Z,1.50
2019-04-01T04:14:20.431Z,1.40
2019-04-01T04:17:09.518Z,1.50
2019-04-01T04:19:58.554Z,1.50
2019-04-01T04:22:48.865Z,1.60
2019-04-01T04:25:37.903Z,1.50
2019-04-01T04:28:26.872Z,1.50
2019-04-01T04:31:16.447Z,1.40
2019-04-01T04:34:05.973Z,1.50
2019-04-01T04:36:55.402Z,1.50
2019-04-01T04:39:45.131Z,1.50
2019-04-01T04:42:33.827Z,1.50
2019-04-01T04:45:22.366Z,1.60
2019-04-01T04:48:11.652Z,1.60
2019-04-01T04:51:00.494Z,1.60
2019-04-01T04:53:49.486Z,1.50
2019-04-01T04:56:38.525Z,1.50
2019-04-01T04:59:27.398Z,1.60
2019-04-01T05:02:16.464Z,1.50
2019-04-01T05:05:07.369Z,1.60
2019-04-01T05:07:56.748Z,1.60
2019-04-01T05:10:46.469Z,1.60
2019-04-01T05:13:37.994Z,1.60
2019-04-01T05:16:26.407Z,1.70
2019-04-01T05:19:15.873Z,1.70
2019-04-01T05:22:05.593Z,1.80
2019-04-01T05:24:57.145Z,1.80
2019-04-01T05:27:48.001Z,1.90
2019-04-01T05:30:38.582Z,2.00
2019-04-01T05:33:30.917Z,2.20
2019-04-01T05:36:23.296Z,2.20
2019-04-01T05:39:12.840Z,2.20
2019-04-01T05:42:01.963Z,2.40
2019-04-01T05:44:51.785Z,3.30
2019-04-01T05:47:42.797Z,4.30
2019-04-01T05:50:31.858Z,5.10
2019-04-01T05:53:20.930Z,5.60
2019-04-01T05:56:09.905Z,5.50
2019-04-01T05:58:59.394Z,5.60
2019-04-01T06:01:48.949Z,5.60
2019-04-01T06:04:37.982Z,5.80
2019-04-01T06:07:28.201Z,6.30
2019-04-01T06:10:17.310Z,6.80
2019-04-01T06:13:06.319Z,7.40
2019-04-01T06:15:56.144Z,8.20
2019-04-01T06:18:45.813Z,8.50
2019-04-01T06:21:35.915Z,8.60
2019-04-01T06:24:25.560Z,8.50
2019-04-01T06:27:15.036Z,8.70
2019-04-01T06:30:06.541Z,9.00
2019-04-01T06:32:55.216Z,9.30
2019-04-01T06:35:43.606Z,9.30
2019-04-01T06:38:32.218Z,9.20
2019-04-01T06:41:20.589Z,9.60
2019-04-01T06:44:09.931Z,9.90
2019-04-01T06:46:58.724Z,10.10
2019-04-01T06:49:46.918Z,10.20
2019-04-01T06:52:35.768Z,10.40
2019-04-01T06:55:24.999Z,10.90
2019-04-01T06:58:15.465Z,11.20
2019-04-01T07:01:04.926Z,11.50
2019-04-01T07:03:54.610Z,11.20
2019-04-01T07:06:44.091Z,11.60
2019-04-01T07:09:33.257Z,11.50
2019-04-01T07:12:22.608Z,12.20
2019-04-01T07:15:11.721Z,11.50
2019-04-01T07:18:00.822Z,11.30
2019-04-01T07:20:50.639Z,11.70
2019-04-01T07:23:40.019Z,11.70
2019-04-01T07:26:28.977Z,11.50
2019-04-01T07:29:18.635Z,11.50
2019-04-01T07:32:07.984Z,11.60
2019-04-01T07:34:56.237Z,11.80
2019-04-01T07:37:46.921Z,12.00
2019-04-01T07:40:36.346Z,12.40
2019-04-01T07:43:24.653Z,12.20
2019-04-01T07:46:13.251Z,11.90
2019-04-01T07:49:02.000Z,11.50
2019-04-01T07:51:51.401Z,11.20
2019-04-01T07:54:40.539Z,10.40
2019-04-01T07:57:32.673Z,9.70
2019-04-01T08:00:21.370Z,8.90
2019-04-01T08:03:11.213Z,8.20
2019-04-01T08:06:00.132Z,7.80
2019-04-01T08:08:49.936Z,7.90
2019-04-01T08:11:38.973Z,7.80
2019-04-01T08:14:28.395Z,7.80
2019-04-01T08:17:17.873Z,7.70
2019-04-01T08:20:07.569Z,7.50
2019-04-01T08:22:56.710Z,7.80
2019-04-01T08:25:47.915Z,8.10
2019-04-01T08:28:36.339Z,8.10
2019-04-01T08:31:25.366Z,8.20
2019-04-01T08:34:15.411Z,8.30
2019-04-01T08:37:04.429Z,8.30
2019-04-01T08:39:54.067Z,8.10
2019-04-01T08:42:43.776Z,7.90
2019-04-01T08:45:32.986Z,7.90
2019-04-01T08:48:22.910Z,8.00
2019-04-01T08:51:12.930Z,8.30
2019-04-01T08:54:02.025Z,8.40
2019-04-01T08:56:50.996Z,8.50
2019-04-01T08:59:40.505Z,8.50
2019-04-01T09:02:29.837Z,8.50
2019-04-01T09:05:19.237Z,8.50
2019-04-01T09:08:08.289Z,8.70
2019-04-01T09:10:57.582Z,8.60
2019-04-01T09:13:47.359Z,8.60
2019-04-01T09:16:36.646Z,8.70
2019-04-01T09:19:25.896Z,8.70
2019-04-01T09:22:14.763Z,8.50
2019-04-01T09:25:04.838Z,8.40
2019-04-01T09:27:53.681Z,8.70
2019-04-01T09:30:42.767Z,8.80
2019-04-01T09:33:31.823Z,8.80
2019-04-01T09:36:20.592Z,8.80
2019-04-01T09:39:10.028Z,8.80
2019-04-01T09:41:59.843Z,9.00
2019-04-01T09:44:48.602Z,9.20
2019-04-01T09:47:38.074Z,9.20
2019-04-01T09:50:27.633Z,9.00
2019-04-01T09:53:16.960Z,8.90
2019-04-01T09:56:05.555Z,9.00
2019-04-01T09:58:54.740Z,8.80
2019-04-01T10:01:43.907Z,8.80
2019-04-01T10:04:32.615Z,8.90
2019-04-01T10:07:21.862Z,9.20
2019-04-01T10:10:11.140Z,9.20
2019-04-01T10:13:00.209Z,9.10
2019-04-01T10:15:49.025Z,8.90
2019-04-01T10:18:37.587Z,8.90
2019-04-01T10:21:26.406Z,8.90
2019-04-01T10:24:16.230Z,9.00
2019-04-01T10:27:05.360Z,9.10
2019-04-01T10:29:54.627Z,8.90
2019-04-01T10:32:43.514Z,9.00
2019-04-01T10:35:32.795Z,9.30
2019-04-01T10:38:21.862Z,9.40
2019-04-01T10:41:10.606Z,9.30
2019-04-01T10:43:59.877Z,9.30
2019-04-01T10:46:48.759Z,9.30
2019-04-01T10:49:38.458Z,9.20
2019-04-01T10:52:27.138Z,9.40
2019-04-01T10:55:17.684Z,9.70
2019-04-01T10:58:06.594Z,9.90
2019-04-01T11:00:56.494Z,9.90
2019-04-01T11:03:45.465Z,9.90
2019-04-01T11:06:34.722Z,9.80
2019-04-01T11:09:37.668Z,9.60
2019-04-01T11:12:15.145Z,9.60
2019-04-01T11:15:07.678Z,9.80
2019-04-01T11:17:57.060Z,10.10
2019-04-01T11:20:46.017Z,10.30
2019-04-01T11:23:35.617Z,10.10
2019-04-01T11:26:24.411Z,9.60
2019-04-01T11:29:13.212Z,9.50
2019-04-01T11:32:02.521Z,9.40
2019-04-01T11:34:51.815Z,9.50
2019-04-01T11:37:41.946Z,9.60
2019-04-01T11:40:31.020Z,9.90
2019-04-01T11:43:20.439Z,10.00
2019-04-01T11:46:12.328Z,10.00
2019-04-01T11:48:59.889Z,10.10
2019-04-01T11:51:48.722Z,10.20
2019-04-01T11:54:39.090Z,10.40
2019-04-01T11:57:28.078Z,10.40
2019-04-01T12:00:19.165Z,10.40
2019-04-01T12:03:08.467Z,10.60
2019-04-01T12:05:57.633Z,10.70
2019-04-01T12:08:46.669Z,10.80
2019-04-01T12:11:36.058Z,10.90
2019-04-01T12:14:26.127Z,10.40
2019-04-01T12:17:15.550Z,10.40
2019-04-01T12:20:06.902Z,10.30
2019-04-01T12:22:56.379Z,10.60
2019-04-01T12:25:45.707Z,11.00
2019-04-01T12:28:36.563Z,11.00
2019-04-01T12:31:25.125Z,11.20
2019-04-01T12:34:14.471Z,11.10
2019-04-01T12:37:03.795Z,11.30
2019-04-01T12:39:53.644Z,11.30
2019-04-01T12:42:43.192Z,11.10
2019-04-01T12:45:32.082Z,11.10
2019-04-01T12:48:21.404Z,11.30
2019-04-01T12:51:11.034Z,11.30
2019-04-01T12:53:59.629Z,11.10
2019-04-01T12:56:49.272Z,10.90
2019-04-01T12:59:38.017Z,11.00
2019-04-01T13:02:27.525Z,11.20
2019-04-01T13:05:16.769Z,11.40
2019-04-01T13:08:05.754Z,11.30
2019-04-01T13:10:56.709Z,11.20
2019-04-01T13:13:48.724Z,10.90
2019-04-01T13:16:36.504Z,11.20
2019-04-01T13:19:25.602Z,11.30
2019-04-01T13:22:15.045Z,11.40
2019-04-01T13:25:05.612Z,11.50
2019-04-01T13:27:54.101Z,11.80
2019-04-01T13:30:43.007Z,11.60
2019-04-01T13:33:32.332Z,11.30
2019-04-01T13:36:21.505Z,11.50
2019-04-01T13:39:11.190Z,11.50
2019-04-01T13:42:00.034Z,11.30
2019-04-01T13:44:48.892Z,11.30
2019-04-01T13:47:41.118Z,11.30
2019-04-01T13:50:28.264Z,11.30
2019-04-01T13:53:17.434Z,11.20
2019-04-01T13:56:09.904Z,11.20
2019-04-01T13:58:56.680Z,11.10
2019-04-01T14:01:45.764Z,11.20
2019-04-01T14:04:35.283Z,11.40
2019-04-01T14:07:24.401Z,11.40
2019-04-01T14:10:14.776Z,11.60
2019-04-01T14:13:04.014Z,11.80
2019-04-01T14:15:53.211Z,11.80
2019-04-01T14:18:42.181Z,11.60
2019-04-01T14:21:31.548Z,11.40
2019-04-01T14:24:20.920Z,11.30
2019-04-01T14:27:10.134Z,11.30
2019-04-01T14:29:59.785Z,11.50
2019-04-01T14:32:48.651Z,11.60
2019-04-01T14:35:37.487Z,11.50
2019-04-01T14:38:27.011Z,11.60
2019-04-01T14:41:16.442Z,11.70
2019-04-01T14:44:05.229Z,11.90
2019-04-01T14:46:54.474Z,11.90
2019-04-01T14:49:43.581Z,11.90
2019-04-01T14:52:33.156Z,11.80
2019-04-01T14:55:22.187Z,11.80
2019-04-01T14:58:11.246Z,11.70
2019-04-01T15:01:01.334Z,11.80
2019-04-01T15:03:50.801Z,11.80
2019-04-01T15:06:39.795Z,11.80
2019-04-01T15:09:28.930Z,11.70
2019-04-01T15:12:17.977Z,11.60
2019-04-01T15:15:09.052Z,11.50
2019-04-01T15:17:58.369Z,11.40
2019-04-01T15:20:47.676Z,11.40
2019-04-01T15:23:36.609Z,11.50
2019-04-01T15:26:25.699Z,11.50
2019-04-01T15:29:15.142Z,11.60
2019-04-01T15:32:04.504Z,11.70
2019-04-01T15:34:53.578Z,11.50
2019-04-01T15:37:42.234Z,11.50
2019-04-01T15:40:33.202Z,11.50
2019-04-01T15:43:22.635Z,11.50
2019-04-01T15:46:11.881Z,11.50
2019-04-01T15:49:00.295Z,11.40
2019-04-01T15:51:49.602Z,11.40
2019-04-01T15:54:38.865Z,11.40
2019-04-01T15:57:28.321Z,11.40
2019-04-01T16:00:19.693Z,11.40
2019-04-01T16:03:08.220Z,11.30
2019-04-01T16:05:57.516Z,11.40
2019-04-01T16:08:46.548Z,11.30
2019-04-01T16:11:36.255Z,11.20
2019-04-01T16:14:25.523Z,11.20
2019-04-01T16:17:14.876Z,11.10
2019-04-01T16:20:05.870Z,11.00
2019-04-01T16:22:55.105Z,11.00
2019-04-01T16:25:44.108Z,11.00
2019-04-01T16:28:33.871Z,11.00
2019-04-01T16:31:22.970Z,10.80
2019-04-01T16:34:11.814Z,10.90
2019-04-01T16:37:00.642Z,10.80
2019-04-01T16:39:49.934Z,10.70
2019-04-01T16:42:39.540Z,10.60
2019-04-01T16:45:28.886Z,10.60
2019-04-01T16:48:18.067Z,10.60
2019-04-01T16:51:07.474Z,10.50
2019-04-01T16:53:56.400Z,10.50
2019-04-01T16:56:46.178Z,10.50
2019-04-01T16:59:34.841Z,10.40
2019-04-01T17:02:24.092Z,10.30
2019-04-01T17:05:13.680Z,10.20
2019-04-01T17:08:03.034Z,10.10
2019-04-01T17:10:52.579Z,10.00
2019-04-01T17:13:42.141Z,10.10
2019-04-01T17:16:31.029Z,10.10
2019-04-01T17:19:20.190Z,10.00
2019-04-01T17:22:11.378Z,9.90
2019-04-01T17:25:00.206Z,9.90
2019-04-01T17:27:49.667Z,9.70
2019-04-01T17:30:38.946Z,9.80
2019-04-01T17:33:28.038Z,9.70
2019-04-01T17:36:19.224Z,9.50
2019-04-01T17:39:12.325Z,9.50
2019-04-01T17:42:00.742Z,9.40
2019-04-01T17:44:53.692Z,9.30
2019-04-01T17:47:43.185Z,9.30
2019-04-01T17:50:32.745Z,9.30
2019-04-01T17:53:22.374Z,9.30
2019-04-01T17:56:11.281Z,9.20
2019-04-01T17:59:01.658Z,9.10
2019-04-01T18:01:51.376Z,9.10
2019-04-01T18:04:40.501Z,8.90
2019-04-01T18:07:29.797Z,8.90
2019-04-01T18:10:18.853Z,8.90
2019-04-01T18:13:08.294Z,8.80
2019-04-01T18:15:57.784Z,8.80
2019-04-01T18:18:46.462Z,8.80
2019-04-01T18:21:38.217Z,8.70
2019-04-01T18:24:26.143Z,8.70
2019-04-01T18:27:15.623Z,8.70
2019-04-01T18:30:09.405Z,8.70
2019-04-01T18:32:59.978Z,8.60
2019-04-01T18:35:49.745Z,8.50
2019-04-01T18:38:40.947Z,8.50
2019-04-01T18:41:29.325Z,8.60
2019-04-01T18:44:18.696Z,8.50
2019-04-01T18:47:07.943Z,8.50
2019-04-01T18:49:56.820Z,8.40
2019-04-01T18:52:45.987Z,8.40
2019-04-01T18:55:35.243Z,8.40
2019-04-01T18:58:25.187Z,8.40
2019-04-01T19:01:15.930Z,8.30
2019-04-01T19:04:05.630Z,8.30
2019-04-01T19:06:55.074Z,8.20
2019-04-01T19:09:44.435Z,8.20
2019-04-01T19:12:33.952Z,8.10
2019-04-01T19:15:24.401Z,8.00
2019-04-01T19:18:14.438Z,8.00
2019-04-01T19:21:05.023Z,8.00
2019-04-01T19:23:55.033Z,8.00
2019-04-01T19:26:44.190Z,8.00
2019-04-01T19:29:33.583Z,8.00
2019-04-01T19:32:22.635Z,7.80
2019-04-01T19:35:12.267Z,7.90
2019-04-01T19:38:01.104Z,7.80
2019-04-01T19:40:49.890Z,7.80
2019-04-01T19:43:39.727Z,7.70
2019-04-01T19:46:28.887Z,7.70
2019-04-01T19:49:18.039Z,7.70
2019-04-01T19:52:09.763Z,7.60
2019-04-01T19:54:57.462Z,7.70
2019-04-01T19:57:46.771Z,7.60
2019-04-01T20:00:35.867Z,7.60
2019-04-01T20:03:25.608Z,7.60
2019-04-01T20:06:15.246Z,7.50
2019-04-01T20:09:06.712Z,7.50
2019-04-01T20:11:58.362Z,7.40
2019-04-01T20:14:46.660Z,7.30
2019-04-01T20:17:35.981Z,7.20
2019-04-01T20:20:25.330Z,7.20
2019-04-01T20:23:14.592Z,7.30
2019-04-01T20:26:03.523Z,7.30
2019-04-01T20:28:52.932Z,7.20
2019-04-01T20:31:42.358Z,7.10
2019-04-01T20:34:32.286Z,7.20
2019-04-01T20:37:22.086Z,7.10
2019-04-01T20:40:12.270Z,7.10
2019-04-01T20:43:01.530Z,7.00
2019-04-01T20:45:50.460Z,7.00
2019-04-01T20:48:39.881Z,7.00
2019-04-01T20:51:29.103Z,7.00
2019-04-01T20:54:18.309Z,6.90
2019-04-01T20:57:06.848Z,6.90
2019-04-01T20:59:56.134Z,6.90
2019-04-01T21:02:45.323Z,6.80
2019-04-01T21:05:34.813Z,6.80
2019-04-01T21:08:24.138Z,6.70
2019-04-01T21:11:12.500Z,6.70
2019-04-01T21:14:00.428Z,6.70
2019-04-01T21:16:48.569Z,6.70
2019-04-01T21:19:37.126Z,6.60
2019-04-01T21:22:25.460Z,6.60
2019-04-01T21:25:13.869Z,6.60
2019-04-01T21:28:01.915Z,6.70
2019-04-01T21:30:50.214Z,6.70
2019-04-01T21:33:38.413Z,6.70
2019-04-01T21:36:26.527Z,6.70
2019-04-01T21:39:14.944Z,6.80
2019-04-01T21:42:03.173Z,6.70
2019-04-01T21:44:51.239Z,6.60
2019-04-01T21:47:39.068Z,6.50
2019-04-01T21:50:29.553Z,6.50
2019-04-01T21:53:17.079Z,6.50
2019-04-01T21:56:05.336Z,6.50
2019-04-01T21:58:53.872Z,6.50
2019-04-01T22:01:42.109Z,6.40
2019-04-01T22:04:29.979Z,6.40
2019-04-01T22:07:18.022Z,6.40
2019-04-01T22:10:07.862Z,6.30
2019-04-01T22:12:56.773Z,6.40
2019-04-01T22:15:45.594Z,6.40
2019-04-01T22:18:34.534Z,6.30
2019-04-01T22:21:24.058Z,6.30
2019-04-01T22:24:13.525Z,6.30
2019-04-01T22:27:02.682Z,6.30
2019-04-01T22:29:51.548Z,6.20
2019-04-01T22:32:40.123Z,6.20
2019-04-01T22:35:38.681Z,6.00
2019-04-01T22:38:25.335Z,6.10
2019-04-01T22:41:10.677Z,6.00
2019-04-01T22:43:59.906Z,6.00
2019-04-01T22:46:49.431Z,6.10
2019-04-01T22:49:38.991Z,5.90
2019-04-01T22:52:27.919Z,5.90
2019-04-01T22:55:16.613Z,6.00
2019-04-01T22:58:05.941Z,6.00
2019-04-01T23:00:55.253Z,6.00
2019-04-01T23:03:44.173Z,6.00
2019-04-01T23:06:34.373Z,5.90
2019-04-01T23:09:23.830Z,6.00
2019-04-01T23:12:13.052Z,5.90
2019-04-01T23:15:02.136Z,5.90
2019-04-01T23:17:51.543Z,5.90
2019-04-01T23:20:40.355Z,5.90
2019-04-01T23:23:29.326Z,5.90
2019-04-01T23:26:18.575Z,5.90
2019-04-01T23:29:07.496Z,5.90
2019-04-01T23:31:56.702Z,5.80
2019-04-01T23:34:45.282Z,5.80
2019-04-01T23:37:34.323Z,5.80
2019-04-01T23:40:23.085Z,5.70
2019-04-01T23:43:12.555Z,5.80
2019-04-01T23:46:01.414Z,5.80
2019-04-01T23:48:50.684Z,5.70
2019-04-01T23:51:40.054Z,5.70
2019-04-01T23:54:31.021Z,5.80
2019-04-01T23:57:20.760Z,5.80
